Time;durP1;ratioP1;P1;durP2;ratioP2;P2;SDS_P1;SDS_P2;PMS_P1;PMS_P2;Temp;Humidity;BMP_temperature;BMP_pressure;BME280_temperature;BME280_humidity;BME280_pressure;Samples;Min_cycle;Max_cycle;Signal;HPM_P1;HPM_P2
2022/05/26 00:03:12;;;;;;;7.80;2.60;;;23.30;62.00;;;;;;217115;1290;22928;-52
2022/05/26 00:08:16;;;;;;;5.40;2.10;;;23.30;62.10;;;;;;216991;1290;24320;-53
2022/05/26 00:13:21;;;;;;;5.40;1.80;;;23.30;62.10;;;;;;216496;1290;22575;-51
2022/05/26 00:18:26;;;;;;;5.60;2.40;;;23.30;62.00;;;;;;216379;1290;24328;-50
2022/05/26 00:23:32;;;;;;;6.90;1.70;;;23.20;62.00;;;;;;216712;1290;22593;-52
2022/05/26 00:28:37;;;;;;;6.40;1.60;;;23.20;62.10;;;;;;217098;1290;25588;-51
2022/05/26 00:33:41;;;;;;;4.50;2.10;;;23.20;62.00;;;;;;216970;1290;24253;-53
2022/05/26 00:38:47;;;;;;;4.30;1.80;;;23.20;62.40;;;;;;217090;1290;22631;-49
2022/05/26 00:43:51;;;;;;;7.40;2.40;;;23.20;62.10;;;;;;216775;1290;24412;-51
2022/05/26 00:49:00;;;;;;;4.10;1.80;;;23.20;62.10;;;;;;216909;1288;24332;-49
2022/05/26 00:54:13;;;;;;;3.90;1.70;;;23.20;62.20;;;;;;216802;1290;22603;-52
2022/05/26 00:59:23;;;;;;;3.80;1.90;;;23.20;62.10;;;;;;216478;1290;24262;-50
2022/05/26 01:04:37;;;;;;;3.20;1.50;;;23.10;62.10;;;;;;217017;1290;22548;-51
2022/05/26 01:09:41;;;;;;;4.90;1.90;;;23.10;62.20;;;;;;216642;1290;22674;-51
2022/05/26 01:15:07;;;;;;;6.30;2.20;;;23.20;62.20;;;;;;216937;1290;22590;-48
2022/05/26 01:20:22;;;;;;;4.40;1.90;;;23.10;62.20;;;;;;216992;1290;23201;-48
2022/05/26 01:26:04;;;;;;;6.00;2.10;;;23.10;62.10;;;;;;216826;1290;22554;-48
2022/05/26 01:31:33;;;;;;;4.40;1.90;;;23.10;62.10;;;;;;216688;1290;24342;-49
2022/05/26 01:37:22;;;;;;;4.80;1.90;;;23.10;62.10;;;;;;217139;1290;23968;-50
2022/05/26 01:43:03;;;;;;;6.00;2.10;;;23.10;62.40;;;;;;216521;1290;22516;-52
2022/05/26 01:48:19;;;;;;;6.30;1.60;;;23.10;62.10;;;;;;216140;1290;22593;-52
2022/05/26 01:54:02;;;;;;;4.40;2.10;;;23.00;62.10;;;;;;216734;1290;25254;-56
2022/05/26 01:59:11;;;;;;;4.10;1.60;;;23.10;62.00;;;;;;216720;1290;22580;-52
2022/05/26 02:04:27;;;;;;;4.30;1.60;;;23.10;62.00;;;;;;217135;1290;22613;-49
2022/05/26 02:09:41;;;;;;;5.80;2.10;;;23.10;62.00;;;;;;216283;1289;26590;-49
2022/05/26 02:14:58;;;;;;;6.10;1.90;;;23.00;62.00;;;;;;217036;1290;22603;-49
2022/05/26 02:20:09;;;;;;;3.70;1.80;;;23.00;62.20;;;;;;216995;1290;22808;-53
2022/05/26 02:25:23;;;;;;;4.60;1.80;;;23.00;61.90;;;;;;217127;1290;24245;-52
2022/05/26 02:30:40;;;;;;;3.80;1.60;;;23.00;61.90;;;;;;216439;1290;25540;-48
2022/05/26 02:35:51;;;;;;;4.80;1.70;;;23.00;61.90;;;;;;216502;1290;24444;-51
2022/05/26 02:40:56;;;;;;;4.00;1.40;;;23.00;61.90;;;;;;216961;1290;22572;-53
2022/05/26 02:46:23;;;;;;;4.70;1.90;;;23.00;61.90;;;;;;217055;1290;22711;-49
2022/05/26 02:51:42;;;;;;;3.50;1.60;;;23.00;61.90;;;;;;216913;1290;22585;-51
2022/05/26 02:56:51;;;;;;;3.40;1.70;;;23.00;61.80;;;;;;217006;1290;24253;-50
2022/05/26 03:02:04;;;;;;;2.20;1.30;;;23.00;61.90;;;;;;216949;1290;25528;-52
2022/05/26 03:07:12;;;;;;;3.50;1.50;;;22.90;62.20;;;;;;217108;1290;25643;-48
2022/05/26 03:12:24;;;;;;;5.20;1.50;;;22.90;61.90;;;;;;217041;1290;24804;-50
2022/05/26 03:17:27;;;;;;;2.90;1.40;;;22.90;61.90;;;;;;216587;1290;22579;-53
2022/05/26 03:22:31;;;;;;;4.10;1.60;;;22.90;61.80;;;;;;217172;1290;25464;-51
2022/05/26 03:27:35;;;;;;;3.20;1.70;;;22.90;62.10;;;;;;216530;1290;24364;-51
2022/05/26 03:32:41;;;;;;;5.10;1.90;;;22.90;61.60;;;;;;216865;1290;22772;-49
2022/05/26 03:43:08;;;;;;;4.30;1.40;;;22.90;61.70;;;;;;216966;1290;24458;-52
2022/05/26 03:48:12;;;;;;;5.90;1.60;;;22.90;61.70;;;;;;216921;1290;22625;-51
2022/05/26 03:53:16;;;;;;;5.50;2.20;;;22.90;61.70;;;;;;216775;1290;25641;-53
2022/05/26 03:58:20;;;;;;;3.40;1.70;;;22.80;61.50;;;;;;216415;1290;26780;-48
2022/05/26 04:03:24;;;;;;;3.90;1.20;;;22.90;62.20;;;;;;216074;1290;25285;-52
2022/05/26 04:08:28;;;;;;;2.20;1.30;;;22.80;61.60;;;;;;216941;1290;24504;-51
2022/05/26 04:13:32;;;;;;;3.70;1.70;;;22.80;61.60;;;;;;216794;1290;22563;-51
2022/05/26 04:18:37;;;;;;;4.60;1.80;;;22.80;61.70;;;;;;217172;1290;24575;-52
2022/05/26 04:23:43;;;;;;;5.60;1.90;;;22.80;61.50;;;;;;216535;1290;25385;-52
2022/05/26 04:28:47;;;;;;;3.80;1.50;;;22.80;61.00;;;;;;216165;1290;25645;-52
2022/05/26 04:33:50;;;;;;;4.00;1.50;;;22.80;61.70;;;;;;216916;1290;24355;-53
2022/05/26 04:38:56;;;;;;;3.80;1.70;;;22.80;61.50;;;;;;217017;1290;22586;-54
2022/05/26 04:44:00;;;;;;;3.60;1.60;;;22.80;61.50;;;;;;217012;1290;22629;-56
2022/05/26 04:49:05;;;;;;;4.20;1.90;;;22.80;61.40;;;;;;216654;1290;23982;-54
2022/05/26 04:54:12;;;;;;;2.70;1.50;;;22.80;61.70;;;;;;216686;1290;22727;-52
2022/05/26 04:59:16;;;;;;;4.60;1.80;;;22.80;61.40;;;;;;216281;1290;22764;-53
2022/05/26 05:04:23;;;;;;;2.80;1.50;;;22.80;61.30;;;;;;216573;1290;25368;-53
2022/05/26 05:09:28;;;;;;;2.30;1.30;;;22.80;61.80;;;;;;216656;1290;23498;-51
2022/05/26 05:14:39;;;;;;;3.40;1.40;;;22.80;61.30;;;;;;216902;1290;22735;-50
2022/05/26 05:19:45;;;;;;;3.00;1.50;;;22.80;61.40;;;;;;217068;1290;26506;-51
2022/05/26 05:25:02;;;;;;;5.70;1.80;;;22.90;61.30;;;;;;216906;1290;24246;-55
2022/05/26 05:30:21;;;;;;;3.30;1.30;;;22.90;61.20;;;;;;216589;1290;22582;-54
2022/05/26 05:35:35;;;;;;;3.20;1.10;;;22.80;61.20;;;;;;217009;1290;22647;-56
2022/05/26 05:40:38;;;;;;;3.70;1.20;;;22.90;61.40;;;;;;217054;1290;22589;-57
2022/05/26 05:45:42;;;;;;;4.40;1.20;;;22.90;61.50;;;;;;216970;1291;22774;-50
2022/05/26 05:50:48;;;;;;;3.10;1.60;;;22.90;61.50;;;;;;216864;1290;22584;-51
2022/05/26 05:55:52;;;;;;;4.70;1.60;;;22.90;61.40;;;;;;216763;1290;22671;-61
2022/05/26 06:00:57;;;;;;;3.10;1.50;;;23.00;61.30;;;;;;216950;1290;22569;-52
2022/05/26 06:06:03;;;;;;;4.90;1.50;;;23.00;61.80;;;;;;216915;1290;22741;-54
2022/05/26 06:11:07;;;;;;;4.50;1.20;;;23.10;62.20;;;;;;216779;1290;24409;-51
2022/05/26 06:16:13;;;;;;;4.20;1.40;;;23.10;61.90;;;;;;216915;1290;24247;-53
2022/05/26 06:21:20;;;;;;;3.20;1.50;;;23.10;61.90;;;;;;216695;1290;22648;-52
2022/05/26 06:26:27;;;;;;;9.20;2.20;;;23.10;62.20;;;;;;216848;1288;25409;-52
2022/05/26 06:31:33;;;;;;;6.50;1.70;;;23.20;61.90;;;;;;217202;1287;25528;-54
2022/05/26 06:42:07;;;;;;;15.40;1.60;;;23.20;62.00;;;;;;217107;1290;22627;-53
2022/05/26 06:47:17;;;;;;;13.50;2.40;;;23.30;61.90;;;;;;217060;1291;24278;-53
2022/05/26 06:52:23;;;;;;;11.80;2.10;;;23.30;62.00;;;;;;216987;1290;22615;-55
2022/05/26 06:57:27;;;;;;;13.80;2.70;;;23.30;61.90;;;;;;216845;1290;22729;-53
2022/05/26 07:02:30;;;;;;;6.40;1.70;;;23.30;61.60;;;;;;216980;1290;22592;-51
2022/05/26 07:07:35;;;;;;;8.90;1.40;;;23.30;61.20;;;;;;216815;1290;24471;-55
2022/05/26 07:12:42;;;;;;;11.80;2.40;;;23.30;61.10;;;;;;217035;1290;22597;-53
2022/05/26 07:17:46;;;;;;;6.50;1.50;;;23.30;60.90;;;;;;216496;1290;22554;-54
2022/05/26 07:22:50;;;;;;;5.90;1.90;;;23.30;61.00;;;;;;216631;1288;250181;-52
2022/05/26 07:27:57;;;;;;;9.00;1.90;;;23.30;61.10;;;;;;217155;1290;24385;-56
2022/05/26 07:33:01;;;;;;;9.90;2.40;;;23.30;60.70;;;;;;216341;1290;25499;-54
2022/05/26 07:43:29;;;;;;;7.40;1.80;;;23.30;60.70;;;;;;216966;1289;22572;-53
2022/05/26 07:48:33;;;;;;;6.90;1.90;;;23.40;60.60;;;;;;217086;1290;24449;-55
2022/05/26 07:53:37;;;;;;;7.50;1.50;;;23.40;60.50;;;;;;216797;1290;22627;-53
2022/05/26 07:58:40;;;;;;;5.90;1.50;;;23.40;60.40;;;;;;217056;1290;25368;-51
2022/05/26 08:03:44;;;;;;;6.40;1.70;;;23.50;59.90;;;;;;216747;1290;22585;-52
2022/05/26 08:08:49;;;;;;;9.00;1.90;;;23.50;60.00;;;;;;216580;1290;25579;-54
2022/05/26 08:13:53;;;;;;;4.10;1.70;;;23.50;59.90;;;;;;216619;1290;22888;-57
2022/05/26 08:18:57;;;;;;;3.40;1.40;;;23.60;59.90;;;;;;216665;1290;22622;-53
2022/05/26 08:24:01;;;;;;;5.20;1.80;;;23.60;59.90;;;;;;216323;1290;22624;-51
2022/05/26 08:29:05;;;;;;;5.20;1.40;;;23.60;59.70;;;;;;216709;1290;24152;-52
2022/05/26 08:34:08;;;;;;;3.80;1.70;;;23.60;59.90;;;;;;216537;1290;23492;-54
2022/05/26 08:39:13;;;;;;;3.80;1.20;;;23.60;59.40;;;;;;216170;1293;22548;-54
2022/05/26 08:44:32;;;;;;;3.40;1.60;;;23.60;59.40;;;;;;216157;1293;24308;-53
2022/05/26 08:49:46;;;;;;;3.10;1.10;;;23.70;59.30;;;;;;216713;1290;24449;-54
2022/05/26 08:55:02;;;;;;;8.90;1.20;;;23.70;59.20;;;;;;216543;1290;25434;-53
2022/05/26 09:00:13;;;;;;;3.90;1.70;;;23.70;59.00;;;;;;216470;1290;22675;-54
2022/05/26 09:05:21;;;;;;;5.50;1.20;;;23.70;59.00;;;;;;216621;1290;22564;-52
2022/05/26 09:16:06;;;;;;;4.80;1.40;;;23.80;58.80;;;;;;216827;1290;22635;-55
2022/05/26 09:21:39;;;;;;;3.80;1.30;;;23.80;58.80;;;;;;216686;1290;23205;-52
2022/05/26 09:26:46;;;;;;;4.00;1.30;;;23.80;58.80;;;;;;216364;1290;22835;-58
2022/05/26 09:31:54;;;;;;;5.50;1.90;;;23.80;58.60;;;;;;217146;1290;22663;-54
2022/05/26 09:37:47;;;;;;;8.80;1.30;;;23.80;58.90;;;;;;217185;1290;24405;-53
2022/05/26 09:43:08;;;;;;;5.60;1.90;;;23.80;58.80;;;;;;216781;1290;24435;-55
2022/05/26 09:48:32;;;;;;;2.40;1.30;;;23.90;58.40;;;;;;216988;1290;24340;-55
2022/05/26 09:53:45;;;;;;;6.40;1.40;;;23.90;58.50;;;;;;217043;1290;22580;-51
2022/05/26 09:58:54;;;;;;;4.40;1.80;;;23.90;58.40;;;;;;216316;1290;22613;-53
2022/05/26 10:04:35;;;;;;;4.10;1.80;;;23.90;58.30;;;;;;216702;1290;24327;-52
2022/05/26 10:10:16;;;;;;;;;;;;;;;;;;;;;
2022/05/26 10:15:46;;;;;;;5.00;1.10;;;24.00;58.40;;;;;;216819;1290;25490;-57
2022/05/26 10:21:21;;;;;;;4.00;1.50;;;24.10;58.60;;;;;;216866;1290;25659;-57
2022/05/26 10:26:53;;;;;;;4.00;1.30;;;24.10;59.40;;;;;;216449;1290;24134;-54
2022/05/26 10:31:59;;;;;;;8.20;1.80;;;24.10;58.90;;;;;;216971;1291;25449;-53
2022/05/26 10:37:41;;;;;;;3.40;1.10;;;24.20;60.00;;;;;;216927;1289;24463;-56
2022/05/26 10:43:05;;;;;;;6.90;1.30;;;24.20;60.60;;;;;;217076;1288;22929;-54
2022/05/26 10:48:41;;;;;;;3.90;1.20;;;24.20;61.20;;;;;;216869;1290;22576;-57
2022/05/26 10:53:57;;;;;;;5.40;1.30;;;24.30;61.80;;;;;;216396;1290;25491;-55
2022/05/26 10:59:07;;;;;;;2.60;1.20;;;24.30;61.90;;;;;;216211;1290;22579;-54
2022/05/26 11:04:32;;;;;;;4.90;1.40;;;24.30;62.70;;;;;;216909;1290;24373;-52
2022/05/26 11:09:47;;;;;;;4.00;1.40;;;24.30;62.00;;;;;;217035;1290;25279;-55
2022/05/26 11:20:28;;;;;;;8.00;2.30;;;24.30;61.10;;;;;;216125;1290;22561;-57
2022/05/26 11:25:38;;;;;;;15.20;2.50;;;24.30;63.50;;;;;;216736;1290;24347;-52
2022/05/26 11:36:22;;;;;;;13.90;2.50;;;24.40;62.40;;;;;;216697;1290;24520;-53
2022/05/26 11:41:35;;;;;;;;;;;24.40;61.50;;;;;;216881;1290;25454;-54
2022/05/26 11:46:45;;;;;;;6.80;2.20;;;24.40;62.20;;;;;;216726;1290;22586;-54
2022/05/26 11:51:49;;;;;;;9.00;2.10;;;24.40;62.50;;;;;;217018;1290;24306;-54
2022/05/26 11:56:53;;;;;;;11.50;2.30;;;24.40;62.80;;;;;;217242;1290;25283;-54
2022/05/26 12:01:59;;;;;;;7.80;1.70;;;24.40;64.40;;;;;;216938;1290;23942;-53
2022/05/26 12:07:04;;;;;;;9.70;1.70;;;24.50;64.60;;;;;;216894;1290;22656;-58
2022/05/26 12:12:17;;;;;;;8.90;2.60;;;24.50;63.80;;;;;;217334;1290;22711;-54
2022/05/26 12:17:57;;;;;;;4.60;2.00;;;24.50;62.80;;;;;;216874;1290;24463;-52
2022/05/26 12:23:04;;;;;;;7.10;1.70;;;24.50;62.60;;;;;;217148;1290;24249;-56
2022/05/26 12:28:31;;;;;;;7.40;1.90;;;24.50;62.30;;;;;;216304;1290;22639;-55
2022/05/26 12:34:02;;;;;;;8.40;1.90;;;24.50;62.10;;;;;;216891;1290;24267;-54
2022/05/26 12:39:34;;;;;;;8.10;1.70;;;24.50;61.90;;;;;;217012;1290;25267;-54
2022/05/26 12:44:57;;;;;;;7.20;1.60;;;24.50;61.80;;;;;;216450;1290;24078;-55
2022/05/26 12:50:22;;;;;;;9.70;2.00;;;24.50;61.90;;;;;;216878;1290;24438;-53
2022/05/26 12:56:24;;;;;;;4.50;1.60;;;24.50;61.10;;;;;;216983;1290;22596;-55
2022/05/26 13:01:29;;;;;;;6.10;2.30;;;24.50;61.40;;;;;;215707;1290;22786;-54
2022/05/26 13:06:38;;;;;;;6.40;1.60;;;24.50;61.60;;;;;;217008;1290;22582;-56
2022/05/26 13:12:04;;;;;;;4.20;1.40;;;24.50;61.40;;;;;;217083;1290;22572;-54
2022/05/26 13:17:10;;;;;;;8.40;2.00;;;24.50;61.40;;;;;;216815;1290;24404;-54
2022/05/26 13:22:24;;;;;;;3.20;1.30;;;24.50;61.10;;;;;;216587;1290;24595;-58
2022/05/26 13:27:51;;;;;;;3.50;1.90;;;24.50;61.00;;;;;;217222;1290;24322;-58
2022/05/26 13:33:11;;;;;;;;;;;24.50;60.90;;;;;;216823;1290;25334;-57
2022/05/26 13:38:48;;;;;;;7.70;1.70;;;24.50;61.10;;;;;;217005;1290;22580;-57
2022/05/26 13:43:54;;;;;;;6.30;1.70;;;24.50;60.70;;;;;;216594;1290;22602;-58
2022/05/26 13:49:19;;;;;;;5.10;1.50;;;24.50;60.50;;;;;;216565;1290;24243;-57
2022/05/26 13:54:25;;;;;;;4.10;1.50;;;24.60;60.50;;;;;;217245;1290;24484;-59
2022/05/26 13:59:36;;;;;;;3.30;1.30;;;24.50;60.30;;;;;;217367;1290;25267;-57
2022/05/26 14:04:42;;;;;;;4.70;1.60;;;24.50;60.40;;;;;;216832;1291;22572;-56
2022/05/26 14:10:05;;;;;;;6.70;2.00;;;24.50;60.20;;;;;;217272;1290;24465;-55
2022/05/26 14:15:11;;;;;;;2.70;1.30;;;24.50;60.00;;;;;;216330;1290;24253;-56
2022/05/26 14:20:24;;;;;;;4.00;1.60;;;24.50;60.00;;;;;;217285;1290;22560;-54
2022/05/26 14:25:29;;;;;;;3.30;1.70;;;24.50;59.80;;;;;;217129;1290;22559;-57
2022/05/26 14:30:35;;;;;;;5.80;1.50;;;24.50;59.80;;;;;;216740;1290;22592;-56
2022/05/26 14:35:39;;;;;;;4.30;1.20;;;24.50;59.60;;;;;;216790;1290;22708;-55
2022/05/26 14:40:44;;;;;;;8.70;1.90;;;24.50;59.80;;;;;;217206;1290;22746;-59
2022/05/26 14:45:55;;;;;;;9.80;1.60;;;24.50;59.50;;;;;;217028;1290;22724;-57
2022/05/26 14:51:22;;;;;;;5.10;1.40;;;24.60;59.70;;;;;;216685;1290;22576;-56
2022/05/26 14:56:27;;;;;;;12.90;2.70;;;24.60;59.60;;;;;;216768;1290;24364;-56
2022/05/26 15:01:34;;;;;;;15.10;2.50;;;24.60;59.50;;;;;;216622;1290;25258;-58
2022/05/26 15:06:53;;;;;;;11.00;2.00;;;24.60;59.40;;;;;;216056;1290;22643;-56
2022/05/26 15:12:04;;;;;;;11.60;2.10;;;24.60;59.30;;;;;;216354;1290;22595;-53
2022/05/26 15:17:17;;;;;;;7.90;2.30;;;24.60;59.40;;;;;;216278;1290;22748;-56
2022/05/26 15:22:42;;;;;;;12.60;2.70;;;24.70;60.00;;;;;;216416;1290;24776;-57
2022/05/26 15:27:46;;;;;;;6.70;1.60;;;24.70;60.90;;;;;;216633;1290;22603;-57
2022/05/26 15:32:52;;;;;;;9.90;2.90;;;24.70;62.20;;;;;;216202;1290;22636;-56
2022/05/26 15:38:00;;;;;;;15.70;2.50;;;24.70;63.50;;;;;;216028;1290;22602;-57
2022/05/26 15:43:11;;;;;;;13.30;2.50;;;24.80;62.00;;;;;;216892;1290;25607;-52
2022/05/26 15:48:15;;;;;;;11.90;3.00;;;24.70;62.80;;;;;;217081;1290;25414;-53
2022/05/26 15:53:29;;;;;;;20.70;3.50;;;24.80;63.70;;;;;;216567;1290;25260;-47
2022/05/26 15:58:35;;;;;;;15.50;2.90;;;24.80;63.10;;;;;;216894;1290;25335;-51
2022/05/26 16:03:40;;;;;;;20.80;4.70;;;24.70;58.70;;;;;;217259;1289;24430;-51
2022/05/26 16:08:44;;;;;;;43.80;7.50;;;24.60;58.00;;;;;;216532;1290;22594;-52
2022/05/26 16:13:52;;;;;;;50.20;12.50;;;24.60;57.70;;;;;;217078;1290;22585;-52
2022/05/26 16:18:56;;;;;;;32.10;7.20;;;24.60;57.80;;;;;;217014;1290;23946;-50
2022/05/26 16:24:00;;;;;;;30.90;7.70;;;24.70;54.80;;;;;;216773;1290;22596;-54
2022/05/26 16:29:05;;;;;;;34.10;8.00;;;24.70;53.30;;;;;;216593;1290;25496;-47
2022/05/26 16:34:28;;;;;;;33.00;7.30;;;24.60;55.00;;;;;;216163;1290;22602;-48
2022/05/26 16:39:48;;;;;;;19.10;4.50;;;24.50;54.50;;;;;;216849;1290;25511;-49
2022/05/26 16:45:02;;;;;;;13.70;4.10;;;24.60;53.90;;;;;;217234;1290;26497;-53
2022/05/26 16:50:22;;;;;;;15.50;4.10;;;24.60;52.50;;;;;;216524;1290;25377;-55
2022/05/26 16:55:28;;;;;;;22.10;4.40;;;24.60;53.20;;;;;;216502;1290;22571;-55
2022/05/26 17:00:49;;;;;;;13.90;4.50;;;24.60;52.90;;;;;;216648;1290;22703;-50
2022/05/26 17:06:07;;;;;;;17.80;4.30;;;24.60;53.30;;;;;;217002;1290;22557;-53
2022/05/26 17:11:12;;;;;;;15.00;4.00;;;24.60;53.80;;;;;;216871;1290;22569;-50
2022/05/26 17:22:03;;;;;;;20.10;3.20;;;24.50;52.40;;;;;;216884;1290;24260;-51
2022/05/26 17:27:34;;;;;;;11.90;3.50;;;24.50;52.90;;;;;;217099;1290;25626;-52
2022/05/26 17:32:47;;;;;;;14.70;3.60;;;24.50;52.40;;;;;;216634;1287;24274;-51
2022/05/26 17:38:00;;;;;;;16.70;3.20;;;24.50;51.60;;;;;;216938;1287;25462;-51
2022/05/26 17:43:09;;;;;;;13.60;3.50;;;24.60;51.50;;;;;;216501;1290;22557;-54
2022/05/26 17:48:17;;;;;;;17.80;3.90;;;24.60;53.90;;;;;;216296;1290;26510;-51
2022/05/26 17:53:25;;;;;;;14.00;3.60;;;24.60;52.80;;;;;;217127;1287;25444;-52
2022/05/26 17:58:37;;;;;;;17.10;3.20;;;24.50;51.10;;;;;;217490;1287;25264;-51
2022/05/26 18:03:45;;;;;;;15.00;3.80;;;24.50;52.80;;;;;;217046;1287;24520;-54
2022/05/26 18:08:56;;;;;;;26.00;3.60;;;24.50;52.00;;;;;;216912;1287;25441;-50
2022/05/26 18:14:09;;;;;;;13.50;3.80;;;24.50;51.20;;;;;;216813;1290;25180;-53
2022/05/26 18:19:18;;;;;;;20.50;3.10;;;24.40;52.20;;;;;;216691;1289;25397;-53
2022/05/26 18:24:22;;;;;;;28.50;3.30;;;24.40;51.90;;;;;;216461;1290;22588;-53
2022/05/26 18:29:27;;;;;;;20.50;4.00;;;24.50;51.60;;;;;;216833;1288;28063;-50
2022/05/26 18:34:34;;;;;;;21.90;4.10;;;24.50;51.20;;;;;;216816;1287;25271;-60
2022/05/26 18:39:38;;;;;;;13.50;3.80;;;24.40;51.50;;;;;;216594;1288;24344;-51
2022/05/26 18:44:45;;;;;;;12.00;2.60;;;24.40;51.40;;;;;;216725;1287;22585;-54
2022/05/26 18:49:58;;;;;;;10.80;3.30;;;24.10;51.90;;;;;;216515;1289;23956;-51
2022/05/26 18:55:10;;;;;;;13.40;2.50;;;24.00;51.70;;;;;;216430;1290;22586;-53
2022/05/26 19:00:14;;;;;;;11.00;2.50;;;24.00;51.00;;;;;;217008;1287;25569;-51
2022/05/26 19:05:47;;;;;;;7.50;2.50;;;24.10;52.20;;;;;;217123;1287;24285;-53
2022/05/26 19:10:56;;;;;;;6.10;2.20;;;24.30;52.20;;;;;;217103;1287;22592;-51
2022/05/26 19:16:03;;;;;;;13.40;2.30;;;24.40;51.80;;;;;;216858;1290;23183;-49
2022/05/26 19:21:08;;;;;;;7.00;2.30;;;24.40;51.80;;;;;;216628;1288;324064;-52
2022/05/26 19:26:12;;;;;;;6.70;2.10;;;24.50;53.10;;;;;;217253;1288;24249;-53
2022/05/26 19:31:15;;;;;;;12.70;2.50;;;24.50;52.60;;;;;;217013;1289;26622;-50
2022/05/26 19:36:22;;;;;;;10.00;1.90;;;24.50;52.90;;;;;;216637;1290;22620;-53
2022/05/26 19:41:26;;;;;;;6.90;2.00;;;24.50;52.30;;;;;;216732;1290;25282;-52
2022/05/26 19:46:37;;;;;;;6.90;2.20;;;24.60;52.60;;;;;;216451;1290;25346;-54
2022/05/26 19:51:42;;;;;;;6.90;2.10;;;24.60;53.50;;;;;;216730;1290;22588;-56
2022/05/26 19:56:48;;;;;;;9.70;2.60;;;24.60;53.30;;;;;;216615;1290;22605;-51
2022/05/26 20:01:55;;;;;;;7.30;1.70;;;24.60;53.30;;;;;;216947;1290;25890;-48
2022/05/26 20:07:01;;;;;;;8.50;2.10;;;24.60;53.70;;;;;;216667;1290;22579;-49
2022/05/26 20:12:06;;;;;;;8.70;2.30;;;24.60;53.80;;;;;;216666;1290;24634;-53
2022/05/26 20:17:11;;;;;;;7.30;1.80;;;24.60;54.00;;;;;;216729;1290;26523;-58
2022/05/26 20:22:15;;;;;;;10.60;2.10;;;24.60;54.60;;;;;;217627;1287;25356;-55
2022/05/26 20:27:19;;;;;;;9.10;2.20;;;24.60;55.30;;;;;;216751;1290;22585;-48
2022/05/26 20:32:28;;;;;;;9.50;2.20;;;24.60;55.00;;;;;;216328;1290;22607;-47
2022/05/26 20:37:40;;;;;;;11.90;2.60;;;24.50;55.30;;;;;;217240;1287;27101;-47
2022/05/26 20:42:44;;;;;;;11.80;2.40;;;24.60;55.70;;;;;;216893;1290;22557;-50
2022/05/26 20:48:01;;;;;;;7.90;2.30;;;24.60;55.50;;;;;;216825;1287;22606;-49
2022/05/26 20:53:05;;;;;;;6.30;2.10;;;24.50;55.00;;;;;;216611;1287;22882;-51
2022/05/26 20:58:12;;;;;;;8.60;2.50;;;24.50;54.70;;;;;;216769;1287;22566;-46
2022/05/26 21:03:17;;;;;;;6.50;2.30;;;24.50;54.50;;;;;;216696;1290;25283;-53
2022/05/26 21:08:25;;;;;;;6.70;1.60;;;24.50;54.20;;;;;;216477;1290;22789;-49
2022/05/26 21:13:28;;;;;;;7.90;2.30;;;24.50;53.80;;;;;;216946;1290;24447;-52
2022/05/26 21:18:36;;;;;;;5.70;1.90;;;24.50;55.20;;;;;;217546;1287;24348;-49
2022/05/26 21:23:39;;;;;;;8.10;2.10;;;24.50;57.10;;;;;;216882;1287;25273;-51
2022/05/26 21:28:45;;;;;;;7.80;2.40;;;24.50;57.20;;;;;;216510;1287;24973;-51
2022/05/26 21:33:49;;;;;;;6.20;2.00;;;24.50;56.30;;;;;;217111;1287;24404;-49
2022/05/26 21:38:55;;;;;;;8.50;2.40;;;24.50;55.50;;;;;;216972;1287;22586;-48
2022/05/26 21:44:02;;;;;;;9.90;1.80;;;24.50;55.40;;;;;;216870;1289;25391;-51
2022/05/26 21:49:07;;;;;;;8.30;2.00;;;24.50;56.20;;;;;;216948;1287;22667;-48
2022/05/26 21:54:16;;;;;;;6.30;2.30;;;24.50;56.30;;;;;;216979;1290;25280;-51
2022/05/26 21:59:29;;;;;;;4.60;2.20;;;24.40;55.40;;;;;;216631;1290;22614;-54
2022/05/26 22:15:22;;;;;;;6.00;2.10;;;24.40;54.90;;;;;;216560;1290;22677;-48
2022/05/26 22:20:46;;;;;;;4.10;1.80;;;24.50;54.90;;;;;;216416;1290;22747;-49
2022/05/26 22:25:52;;;;;;;4.60;1.80;;;24.50;54.70;;;;;;216903;1290;22773;-46
2022/05/26 22:30:59;;;;;;;6.10;2.20;;;24.50;54.80;;;;;;216710;1290;22596;-49
2022/05/26 22:36:04;;;;;;;3.70;1.60;;;24.50;54.80;;;;;;216296;1290;24438;-47
2022/05/26 22:41:19;;;;;;;4.20;2.10;;;24.50;55.00;;;;;;216790;1290;22641;-47
2022/05/26 22:46:29;;;;;;;6.30;2.40;;;24.50;55.10;;;;;;216849;1290;25267;-53
2022/05/26 22:51:34;;;;;;;5.00;2.20;;;24.50;54.70;;;;;;217181;1289;26361;-50
2022/05/26 22:56:39;;;;;;;2.80;1.60;;;24.60;54.90;;;;;;217448;1290;22598;-52
2022/05/26 23:01:43;;;;;;;5.80;1.90;;;24.60;55.00;;;;;;216541;1290;24348;-48
2022/05/26 23:06:48;;;;;;;5.50;2.20;;;24.60;55.20;;;;;;217051;1290;22637;-50
2022/05/26 23:11:55;;;;;;;3.20;1.80;;;24.60;55.30;;;;;;217035;1290;22555;-52
2022/05/26 23:16:58;;;;;;;4.50;2.00;;;24.60;55.70;;;;;;217094;1290;22564;-49
2022/05/26 23:22:02;;;;;;;4.40;2.00;;;24.60;56.00;;;;;;217075;1290;22681;-49
2022/05/26 23:27:06;;;;;;;3.80;1.90;;;24.70;56.40;;;;;;217112;1289;24338;-50
2022/05/26 23:32:11;;;;;;;4.70;1.90;;;24.70;56.40;;;;;;216953;1289;22579;-51
2022/05/26 23:37:16;;;;;;;4.50;2.40;;;24.70;56.70;;;;;;217058;1291;22742;-52
2022/05/26 23:47:52;;;;;;;7.60;2.00;;;24.70;56.90;;;;;;215962;1290;25530;-50
2022/05/26 23:52:56;;;;;;;6.10;2.00;;;24.70;56.70;;;;;;216206;1290;22694;-49
2022/05/26 23:58:00;;;;;;;3.70;1.80;;;24.70;56.70;;;;;;216918;1290;26500;-50
